sensor_id;sensor_type;location;lat;lon;timestamp;P1;durP1;ratioP1;P2;durP2;ratioP2
5060;SDS011;2549;52.128;21.068;2023-06-14T00:00:43;9.80;;;5.27;;
5060;SDS011;2549;52.128;21.068;2023-06-14T00:03:10;11.97;;;6.03;;
5060;SDS011;2549;52.128;21.068;2023-06-14T00:05:39;6.70;;;5.00;;
5060;SDS011;2549;52.128;21.068;2023-06-14T00:08:09;6.03;;;5.43;;
5060;SDS011;2549;52.128;21.068;2023-06-14T00:10:37;7.47;;;5.50;;
5060;SDS011;2549;52.128;21.068;2023-06-14T00:13:05;9.33;;;6.00;;
5060;SDS011;2549;52.128;21.068;2023-06-14T00:15:33;7.93;;;5.30;;
5060;SDS011;2549;52.128;21.068;2023-06-14T00:18:01;8.67;;;5.40;;
5060;SDS011;2549;52.128;21.068;2023-06-14T00:20:29;7.47;;;5.07;;
5060;SDS011;2549;52.128;21.068;2023-06-14T00:22:59;6.33;;;4.80;;
5060;SDS011;2549;52.128;21.068;2023-06-14T00:25:27;7.93;;;5.83;;
5060;SDS011;2549;52.128;21.068;2023-06-14T00:27:55;8.50;;;5.97;;
5060;SDS011;2549;52.128;21.068;2023-06-14T00:30:24;10.07;;;5.33;;
5060;SDS011;2549;52.128;21.068;2023-06-14T00:32:51;6.73;;;6.07;;
5060;SDS011;2549;52.128;21.068;2023-06-14T00:35:19;6.90;;;5.37;;
5060;SDS011;2549;52.128;21.068;2023-06-14T00:37:46;7.70;;;6.17;;
5060;SDS011;2549;52.128;21.068;2023-06-14T00:40:12;9.83;;;7.20;;
5060;SDS011;2549;52.128;21.068;2023-06-14T00:42:40;7.37;;;6.40;;
5060;SDS011;2549;52.128;21.068;2023-06-14T00:45:07;6.93;;;6.20;;
5060;SDS011;2549;52.128;21.068;2023-06-14T00:47:35;9.07;;;6.17;;
5060;SDS011;2549;52.128;21.068;2023-06-14T00:50:06;9.90;;;6.70;;
5060;SDS011;2549;52.128;21.068;2023-06-14T00:52:33;11.10;;;7.00;;
5060;SDS011;2549;52.128;21.068;2023-06-14T00:55:01;10.93;;;7.03;;
5060;SDS011;2549;52.128;21.068;2023-06-14T00:57:28;8.80;;;6.80;;
5060;SDS011;2549;52.128;21.068;2023-06-14T00:59:56;7.80;;;6.00;;
5060;SDS011;2549;52.128;21.068;2023-06-14T01:02:23;7.10;;;6.27;;
5060;SDS011;2549;52.128;21.068;2023-06-14T01:04:50;8.53;;;6.50;;
5060;SDS011;2549;52.128;21.068;2023-06-14T01:10:25;8.70;;;6.23;;
5060;SDS011;2549;52.128;21.068;2023-06-14T01:15:47;8.00;;;6.33;;
5060;SDS011;2549;52.128;21.068;2023-06-14T01:18:15;11.40;;;6.20;;
5060;SDS011;2549;52.128;21.068;2023-06-14T01:20:46;11.93;;;6.97;;
5060;SDS011;2549;52.128;21.068;2023-06-14T01:23:17;13.53;;;6.40;;
5060;SDS011;2549;52.128;21.068;2023-06-14T01:25:45;9.10;;;6.17;;
5060;SDS011;2549;52.128;21.068;2023-06-14T01:28:14;15.50;;;7.70;;
5060;SDS011;2549;52.128;21.068;2023-06-14T01:30:44;9.93;;;7.10;;
5060;SDS011;2549;52.128;21.068;2023-06-14T01:33:13;12.23;;;6.03;;
5060;SDS011;2549;52.128;21.068;2023-06-14T01:35:51;7.27;;;6.57;;
5060;SDS011;2549;52.128;21.068;2023-06-14T01:38:22;7.30;;;5.97;;
5060;SDS011;2549;52.128;21.068;2023-06-14T01:40:52;9.73;;;6.43;;
5060;SDS011;2549;52.128;21.068;2023-06-14T01:43:21;8.57;;;6.80;;
5060;SDS011;2549;52.128;21.068;2023-06-14T01:45:49;9.07;;;6.00;;
5060;SDS011;2549;52.128;21.068;2023-06-14T01:48:19;7.17;;;6.10;;
5060;SDS011;2549;52.128;21.068;2023-06-14T01:50:48;10.23;;;6.97;;
5060;SDS011;2549;52.128;21.068;2023-06-14T01:53:15;11.03;;;6.33;;
5060;SDS011;2549;52.128;21.068;2023-06-14T01:55:42;8.40;;;6.60;;
5060;SDS011;2549;52.128;21.068;2023-06-14T01:58:10;13.20;;;5.83;;
5060;SDS011;2549;52.128;21.068;2023-06-14T02:00:37;8.23;;;6.20;;
5060;SDS011;2549;52.128;21.068;2023-06-14T02:03:04;7.57;;;5.67;;
5060;SDS011;2549;52.128;21.068;2023-06-14T02:05:31;8.00;;;5.67;;
5060;SDS011;2549;52.128;21.068;2023-06-14T02:07:58;6.20;;;5.20;;
5060;SDS011;2549;52.128;21.068;2023-06-14T02:10:25;7.17;;;6.13;;
5060;SDS011;2549;52.128;21.068;2023-06-14T02:12:52;10.07;;;6.40;;
5060;SDS011;2549;52.128;21.068;2023-06-14T02:15:19;9.73;;;6.40;;
5060;SDS011;2549;52.128;21.068;2023-06-14T02:17:46;9.83;;;6.43;;
5060;SDS011;2549;52.128;21.068;2023-06-14T02:20:16;10.67;;;7.23;;
5060;SDS011;2549;52.128;21.068;2023-06-14T02:22:44;10.70;;;6.10;;
5060;SDS011;2549;52.128;21.068;2023-06-14T02:25:11;9.23;;;6.77;;
5060;SDS011;2549;52.128;21.068;2023-06-14T02:27:38;10.60;;;6.70;;
5060;SDS011;2549;52.128;21.068;2023-06-14T02:30:06;10.13;;;6.17;;
5060;SDS011;2549;52.128;21.068;2023-06-14T02:32:33;9.23;;;7.00;;
5060;SDS011;2549;52.128;21.068;2023-06-14T02:35:02;9.80;;;5.60;;
5060;SDS011;2549;52.128;21.068;2023-06-14T02:37:30;6.30;;;5.70;;
5060;SDS011;2549;52.128;21.068;2023-06-14T02:39:57;10.77;;;7.03;;
5060;SDS011;2549;52.128;21.068;2023-06-14T02:42:25;10.37;;;7.33;;
5060;SDS011;2549;52.128;21.068;2023-06-14T02:44:52;9.50;;;6.13;;
5060;SDS011;2549;52.128;21.068;2023-06-14T02:47:18;8.83;;;6.20;;
5060;SDS011;2549;52.128;21.068;2023-06-14T02:49:46;9.40;;;6.10;;
5060;SDS011;2549;52.128;21.068;2023-06-14T02:52:12;9.27;;;6.50;;
5060;SDS011;2549;52.128;21.068;2023-06-14T02:54:39;7.70;;;6.50;;
5060;SDS011;2549;52.128;21.068;2023-06-14T02:57:07;10.43;;;6.73;;
5060;SDS011;2549;52.128;21.068;2023-06-14T02:59:34;11.10;;;6.77;;
5060;SDS011;2549;52.128;21.068;2023-06-14T03:02:01;8.53;;;5.20;;
5060;SDS011;2549;52.128;21.068;2023-06-14T03:04:29;6.50;;;5.70;;
5060;SDS011;2549;52.128;21.068;2023-06-14T03:06:59;9.90;;;6.43;;
5060;SDS011;2549;52.128;21.068;2023-06-14T03:09:29;6.87;;;5.60;;
5060;SDS011;2549;52.128;21.068;2023-06-14T03:11:56;13.70;;;5.57;;
5060;SDS011;2549;52.128;21.068;2023-06-14T03:14:22;9.03;;;6.00;;
5060;SDS011;2549;52.128;21.068;2023-06-14T03:16:49;21.63;;;6.57;;
5060;SDS011;2549;52.128;21.068;2023-06-14T03:19:16;10.33;;;6.70;;
5060;SDS011;2549;52.128;21.068;2023-06-14T03:21:43;8.90;;;5.90;;
5060;SDS011;2549;52.128;21.068;2023-06-14T03:24:11;10.73;;;5.50;;
5060;SDS011;2549;52.128;21.068;2023-06-14T03:26:38;9.10;;;5.70;;
5060;SDS011;2549;52.128;21.068;2023-06-14T03:29:04;12.27;;;5.63;;
5060;SDS011;2549;52.128;21.068;2023-06-14T03:31:31;11.53;;;6.07;;
5060;SDS011;2549;52.128;21.068;2023-06-14T03:34:01;9.30;;;5.90;;
5060;SDS011;2549;52.128;21.068;2023-06-14T03:36:28;8.20;;;7.37;;
5060;SDS011;2549;52.128;21.068;2023-06-14T03:38:55;8.47;;;5.53;;
5060;SDS011;2549;52.128;21.068;2023-06-14T03:41:22;7.27;;;5.47;;
5060;SDS011;2549;52.128;21.068;2023-06-14T03:43:49;12.30;;;6.40;;
5060;SDS011;2549;52.128;21.068;2023-06-14T03:46:16;9.53;;;5.80;;
5060;SDS011;2549;52.128;21.068;2023-06-14T03:48:42;7.67;;;5.30;;
5060;SDS011;2549;52.128;21.068;2023-06-14T03:51:09;8.07;;;5.80;;
5060;SDS011;2549;52.128;21.068;2023-06-14T03:53:36;14.83;;;5.50;;
5060;SDS011;2549;52.128;21.068;2023-06-14T03:56:19;7.83;;;6.50;;
5060;SDS011;2549;52.128;21.068;2023-06-14T03:58:46;11.73;;;6.30;;
5060;SDS011;2549;52.128;21.068;2023-06-14T04:01:13;6.90;;;5.47;;
5060;SDS011;2549;52.128;21.068;2023-06-14T04:03:40;8.00;;;6.00;;
5060;SDS011;2549;52.128;21.068;2023-06-14T04:06:07;7.43;;;5.23;;
5060;SDS011;2549;52.128;21.068;2023-06-14T04:08:34;6.30;;;5.70;;
5060;SDS011;2549;52.128;21.068;2023-06-14T04:11:01;12.23;;;5.90;;
5060;SDS011;2549;52.128;21.068;2023-06-14T04:13:28;7.00;;;6.13;;
5060;SDS011;2549;52.128;21.068;2023-06-14T04:15:55;13.40;;;6.20;;
5060;SDS011;2549;52.128;21.068;2023-06-14T04:18:23;15.30;;;6.00;;
5060;SDS011;2549;52.128;21.068;2023-06-14T04:20:50;6.60;;;5.40;;
5060;SDS011;2549;52.128;21.068;2023-06-14T04:23:17;11.37;;;6.10;;
5060;SDS011;2549;52.128;21.068;2023-06-14T04:25:44;5.37;;;4.87;;
5060;SDS011;2549;52.128;21.068;2023-06-14T04:28:12;12.00;;;6.30;;
5060;SDS011;2549;52.128;21.068;2023-06-14T04:30:42;6.73;;;6.03;;
5060;SDS011;2549;52.128;21.068;2023-06-14T04:33:09;10.30;;;5.40;;
5060;SDS011;2549;52.128;21.068;2023-06-14T04:35:37;6.30;;;5.70;;
5060;SDS011;2549;52.128;21.068;2023-06-14T04:38:03;5.70;;;5.20;;
5060;SDS011;2549;52.128;21.068;2023-06-14T04:40:32;8.30;;;5.00;;
5060;SDS011;2549;52.128;21.068;2023-06-14T04:43:00;6.87;;;5.90;;
5060;SDS011;2549;52.128;21.068;2023-06-14T04:45:27;9.10;;;5.80;;
5060;SDS011;2549;52.128;21.068;2023-06-14T04:48:00;6.53;;;5.53;;
5060;SDS011;2549;52.128;21.068;2023-06-14T04:50:27;7.97;;;5.57;;
5060;SDS011;2549;52.128;21.068;2023-06-14T04:52:55;9.47;;;6.23;;
5060;SDS011;2549;52.128;21.068;2023-06-14T04:55:23;8.30;;;5.90;;
5060;SDS011;2549;52.128;21.068;2023-06-14T04:57:50;14.73;;;7.00;;
5060;SDS011;2549;52.128;21.068;2023-06-14T05:00:19;7.00;;;6.00;;
5060;SDS011;2549;52.128;21.068;2023-06-14T05:02:47;9.23;;;5.80;;
5060;SDS011;2549;52.128;21.068;2023-06-14T05:05:15;9.37;;;6.00;;
5060;SDS011;2549;52.128;21.068;2023-06-14T05:07:42;15.03;;;5.53;;
5060;SDS011;2549;52.128;21.068;2023-06-14T05:10:09;13.80;;;6.20;;
5060;SDS011;2549;52.128;21.068;2023-06-14T05:12:36;6.30;;;5.10;;
5060;SDS011;2549;52.128;21.068;2023-06-14T05:15:06;11.93;;;6.00;;
5060;SDS011;2549;52.128;21.068;2023-06-14T05:17:35;12.03;;;6.43;;
5060;SDS011;2549;52.128;21.068;2023-06-14T05:20:04;6.00;;;5.10;;
5060;SDS011;2549;52.128;21.068;2023-06-14T05:22:31;7.70;;;5.47;;
5060;SDS011;2549;52.128;21.068;2023-06-14T05:24:58;7.97;;;5.57;;
5060;SDS011;2549;52.128;21.068;2023-06-14T05:27:25;9.07;;;6.30;;
5060;SDS011;2549;52.128;21.068;2023-06-14T05:29:52;10.63;;;5.60;;
5060;SDS011;2549;52.128;21.068;2023-06-14T05:32:22;6.00;;;5.20;;
5060;SDS011;2549;52.128;21.068;2023-06-14T05:34:49;7.77;;;5.80;;
5060;SDS011;2549;52.128;21.068;2023-06-14T05:37:16;9.23;;;6.47;;
5060;SDS011;2549;52.128;21.068;2023-06-14T05:39:43;8.60;;;5.63;;
5060;SDS011;2549;52.128;21.068;2023-06-14T05:42:10;10.97;;;5.60;;
5060;SDS011;2549;52.128;21.068;2023-06-14T05:44:37;7.80;;;6.20;;
5060;SDS011;2549;52.128;21.068;2023-06-14T05:47:04;8.77;;;6.20;;
5060;SDS011;2549;52.128;21.068;2023-06-14T05:49:31;9.73;;;6.13;;
5060;SDS011;2549;52.128;21.068;2023-06-14T05:51:58;8.40;;;6.30;;
5060;SDS011;2549;52.128;21.068;2023-06-14T05:54:25;16.53;;;6.03;;
5060;SDS011;2549;52.128;21.068;2023-06-14T05:56:52;11.77;;;6.47;;
5060;SDS011;2549;52.128;21.068;2023-06-14T05:59:19;8.00;;;6.43;;
5060;SDS011;2549;52.128;21.068;2023-06-14T06:01:46;7.97;;;5.83;;
5060;SDS011;2549;52.128;21.068;2023-06-14T06:04:13;8.27;;;6.43;;
5060;SDS011;2549;52.128;21.068;2023-06-14T06:06:40;19.30;;;7.10;;
5060;SDS011;2549;52.128;21.068;2023-06-14T06:09:07;5.80;;;5.30;;
5060;SDS011;2549;52.128;21.068;2023-06-14T06:11:33;17.17;;;6.80;;
5060;SDS011;2549;52.128;21.068;2023-06-14T06:14:18;8.60;;;6.37;;
5060;SDS011;2549;52.128;21.068;2023-06-14T06:16:44;7.63;;;6.83;;
5060;SDS011;2549;52.128;21.068;2023-06-14T06:19:12;9.30;;;7.30;;
5060;SDS011;2549;52.128;21.068;2023-06-14T06:21:38;6.90;;;5.10;;
5060;SDS011;2549;52.128;21.068;2023-06-14T06:24:06;6.63;;;6.00;;
5060;SDS011;2549;52.128;21.068;2023-06-14T06:26:33;7.13;;;6.50;;
5060;SDS011;2549;52.128;21.068;2023-06-14T06:28:59;5.93;;;5.17;;
5060;SDS011;2549;52.128;21.068;2023-06-14T06:31:26;10.50;;;6.80;;
5060;SDS011;2549;52.128;21.068;2023-06-14T06:33:54;6.93;;;6.10;;
5060;SDS011;2549;52.128;21.068;2023-06-14T06:36:21;15.50;;;6.27;;
5060;SDS011;2549;52.128;21.068;2023-06-14T06:38:48;7.67;;;5.67;;
5060;SDS011;2549;52.128;21.068;2023-06-14T06:41:15;7.23;;;6.20;;
5060;SDS011;2549;52.128;21.068;2023-06-14T06:43:42;11.30;;;6.03;;
5060;SDS011;2549;52.128;21.068;2023-06-14T06:46:09;6.80;;;5.73;;
5060;SDS011;2549;52.128;21.068;2023-06-14T06:48:36;30.17;;;7.07;;
5060;SDS011;2549;52.128;21.068;2023-06-14T06:51:02;6.63;;;5.87;;
5060;SDS011;2549;52.128;21.068;2023-06-14T06:53:29;5.00;;;4.60;;
5060;SDS011;2549;52.128;21.068;2023-06-14T06:56:06;12.43;;;4.93;;
5060;SDS011;2549;52.128;21.068;2023-06-14T06:58:33;11.03;;;5.77;;
5060;SDS011;2549;52.128;21.068;2023-06-14T07:01:00;7.57;;;4.63;;
5060;SDS011;2549;52.128;21.068;2023-06-14T07:03:27;5.50;;;5.00;;
5060;SDS011;2549;52.128;21.068;2023-06-14T07:05:54;6.00;;;4.73;;
5060;SDS011;2549;52.128;21.068;2023-06-14T07:08:21;8.10;;;4.97;;
5060;SDS011;2549;52.128;21.068;2023-06-14T07:10:48;11.03;;;5.30;;
5060;SDS011;2549;52.128;21.068;2023-06-14T07:13:15;13.57;;;5.30;;
5060;SDS011;2549;52.128;21.068;2023-06-14T07:15:42;6.50;;;5.03;;
5060;SDS011;2549;52.128;21.068;2023-06-14T07:18:09;7.33;;;5.20;;
5060;SDS011;2549;52.128;21.068;2023-06-14T07:20:36;8.27;;;5.70;;
5060;SDS011;2549;52.128;21.068;2023-06-14T07:23:04;7.40;;;4.83;;
5060;SDS011;2549;52.128;21.068;2023-06-14T07:25:31;6.97;;;5.87;;
5060;SDS011;2549;52.128;21.068;2023-06-14T07:27:58;10.60;;;5.70;;
5060;SDS011;2549;52.128;21.068;2023-06-14T07:30:25;9.57;;;5.37;;
5060;SDS011;2549;52.128;21.068;2023-06-14T07:32:53;12.13;;;5.30;;
5060;SDS011;2549;52.128;21.068;2023-06-14T07:35:21;7.10;;;5.90;;
5060;SDS011;2549;52.128;21.068;2023-06-14T07:37:47;9.77;;;5.47;;
5060;SDS011;2549;52.128;21.068;2023-06-14T07:40:16;5.20;;;4.80;;
5060;SDS011;2549;52.128;21.068;2023-06-14T07:42:43;5.03;;;4.60;;
5060;SDS011;2549;52.128;21.068;2023-06-14T07:45:09;7.57;;;5.10;;
5060;SDS011;2549;52.128;21.068;2023-06-14T07:47:38;5.80;;;4.90;;
5060;SDS011;2549;52.128;21.068;2023-06-14T07:50:05;5.53;;;4.40;;
5060;SDS011;2549;52.128;21.068;2023-06-14T07:52:32;10.93;;;5.43;;
5060;SDS011;2549;52.128;21.068;2023-06-14T07:54:59;8.07;;;4.83;;
5060;SDS011;2549;52.128;21.068;2023-06-14T07:57:26;6.50;;;4.80;;
5060;SDS011;2549;52.128;21.068;2023-06-14T07:59:53;7.00;;;4.57;;
5060;SDS011;2549;52.128;21.068;2023-06-14T08:02:20;8.23;;;5.53;;
5060;SDS011;2549;52.128;21.068;2023-06-14T08:04:47;4.87;;;4.27;;
5060;SDS011;2549;52.128;21.068;2023-06-14T08:07:14;10.60;;;4.83;;
5060;SDS011;2549;52.128;21.068;2023-06-14T08:09:41;14.67;;;5.57;;
5060;SDS011;2549;52.128;21.068;2023-06-14T08:12:08;6.17;;;4.47;;
5060;SDS011;2549;52.128;21.068;2023-06-14T08:14:39;7.17;;;4.00;;
5060;SDS011;2549;52.128;21.068;2023-06-14T08:17:06;6.40;;;5.20;;
5060;SDS011;2549;52.128;21.068;2023-06-14T08:19:33;7.53;;;5.07;;
5060;SDS011;2549;52.128;21.068;2023-06-14T08:22:00;5.90;;;3.23;;
5060;SDS011;2549;52.128;21.068;2023-06-14T08:24:27;7.60;;;4.33;;
5060;SDS011;2549;52.128;21.068;2023-06-14T08:26:54;5.57;;;4.90;;
5060;SDS011;2549;52.128;21.068;2023-06-14T08:29:22;9.40;;;4.13;;
5060;SDS011;2549;52.128;21.068;2023-06-14T08:31:49;6.77;;;4.80;;
5060;SDS011;2549;52.128;21.068;2023-06-14T08:34:16;8.57;;;4.10;;
5060;SDS011;2549;52.128;21.068;2023-06-14T08:36:43;10.80;;;5.10;;
5060;SDS011;2549;52.128;21.068;2023-06-14T08:39:10;8.87;;;4.90;;
5060;SDS011;2549;52.128;21.068;2023-06-14T08:41:37;10.00;;;4.40;;
5060;SDS011;2549;52.128;21.068;2023-06-14T08:44:04;7.37;;;5.20;;
5060;SDS011;2549;52.128;21.068;2023-06-14T08:46:32;4.97;;;3.93;;
5060;SDS011;2549;52.128;21.068;2023-06-14T08:49:01;9.33;;;4.50;;
5060;SDS011;2549;52.128;21.068;2023-06-14T08:51:30;5.50;;;5.00;;
5060;SDS011;2549;52.128;21.068;2023-06-14T08:54:03;10.33;;;4.47;;
5060;SDS011;2549;52.128;21.068;2023-06-14T08:56:33;3.83;;;3.40;;
5060;SDS011;2549;52.128;21.068;2023-06-14T08:59:02;7.03;;;4.00;;
5060;SDS011;2549;52.128;21.068;2023-06-14T09:01:32;20.87;;;5.47;;
5060;SDS011;2549;52.128;21.068;2023-06-14T09:04:04;5.37;;;3.70;;
5060;SDS011;2549;52.128;21.068;2023-06-14T09:06:34;8.23;;;4.50;;
5060;SDS011;2549;52.128;21.068;2023-06-14T09:09:03;8.57;;;4.50;;
5060;SDS011;2549;52.128;21.068;2023-06-14T09:11:30;5.53;;;4.87;;
5060;SDS011;2549;52.128;21.068;2023-06-14T09:13:57;8.40;;;5.10;;
5060;SDS011;2549;52.128;21.068;2023-06-14T09:16:25;7.43;;;4.50;;
5060;SDS011;2549;52.128;21.068;2023-06-14T09:18:52;4.87;;;4.30;;
5060;SDS011;2549;52.128;21.068;2023-06-14T09:21:20;5.23;;;4.73;;
5060;SDS011;2549;52.128;21.068;2023-06-14T09:23:47;7.87;;;6.10;;
5060;SDS011;2549;52.128;21.068;2023-06-14T09:26:15;7.73;;;4.93;;
5060;SDS011;2549;52.128;21.068;2023-06-14T09:28:47;12.03;;;5.10;;
5060;SDS011;2549;52.128;21.068;2023-06-14T09:31:15;8.20;;;4.20;;
5060;SDS011;2549;52.128;21.068;2023-06-14T09:33:44;13.10;;;4.57;;
5060;SDS011;2549;52.128;21.068;2023-06-14T09:36:24;10.83;;;5.30;;
5060;SDS011;2549;52.128;21.068;2023-06-14T09:38:55;4.60;;;4.20;;
5060;SDS011;2549;52.128;21.068;2023-06-14T09:44:07;12.63;;;5.10;;
5060;SDS011;2549;52.128;21.068;2023-06-14T09:46:42;18.07;;;5.60;;
5060;SDS011;2549;52.128;21.068;2023-06-14T09:49:10;5.77;;;4.67;;
5060;SDS011;2549;52.128;21.068;2023-06-14T09:51:43;10.47;;;5.40;;
5060;SDS011;2549;52.128;21.068;2023-06-14T09:54:14;9.17;;;5.27;;
5060;SDS011;2549;52.128;21.068;2023-06-14T09:56:46;11.47;;;4.63;;
5060;SDS011;2549;52.128;21.068;2023-06-14T09:59:16;8.10;;;4.67;;
5060;SDS011;2549;52.128;21.068;2023-06-14T10:01:47;7.97;;;4.37;;
5060;SDS011;2549;52.128;21.068;2023-06-14T10:04:15;5.40;;;4.47;;
5060;SDS011;2549;52.128;21.068;2023-06-14T10:06:47;5.17;;;3.90;;
5060;SDS011;2549;52.128;21.068;2023-06-14T10:09:16;4.90;;;4.00;;
5060;SDS011;2549;52.128;21.068;2023-06-14T10:11:43;3.93;;;3.30;;
5060;SDS011;2549;52.128;21.068;2023-06-14T10:14:11;8.53;;;3.60;;
5060;SDS011;2549;52.128;21.068;2023-06-14T10:19:30;6.23;;;4.10;;
5060;SDS011;2549;52.128;21.068;2023-06-14T10:22:10;4.67;;;3.90;;
5060;SDS011;2549;52.128;21.068;2023-06-14T10:24:43;4.87;;;3.50;;
5060;SDS011;2549;52.128;21.068;2023-06-14T10:27:14;16.23;;;3.90;;
5060;SDS011;2549;52.128;21.068;2023-06-14T10:32:21;5.23;;;3.53;;
5060;SDS011;2549;52.128;21.068;2023-06-14T10:34:55;4.70;;;3.30;;
5060;SDS011;2549;52.128;21.068;2023-06-14T10:37:35;3.23;;;3.00;;
5060;SDS011;2549;52.128;21.068;2023-06-14T10:40:02;3.83;;;3.50;;
5060;SDS011;2549;52.128;21.068;2023-06-14T10:42:31;3.50;;;3.20;;
5060;SDS011;2549;52.128;21.068;2023-06-14T10:44:59;5.63;;;4.37;;
5060;SDS011;2549;52.128;21.068;2023-06-14T10:47:31;4.70;;;3.13;;
5060;SDS011;2549;52.128;21.068;2023-06-14T10:52:33;6.90;;;3.77;;
5060;SDS011;2549;52.128;21.068;2023-06-14T10:55:07;3.57;;;2.60;;
5060;SDS011;2549;52.128;21.068;2023-06-14T10:57:38;6.37;;;3.40;;
5060;SDS011;2549;52.128;21.068;2023-06-14T11:00:18;8.03;;;3.00;;
5060;SDS011;2549;52.128;21.068;2023-06-14T11:02:56;10.03;;;2.77;;
5060;SDS011;2549;52.128;21.068;2023-06-14T11:05:52;10.00;;;3.43;;
5060;SDS011;2549;52.128;21.068;2023-06-14T11:11:29;7.20;;;3.70;;
5060;SDS011;2549;52.128;21.068;2023-06-14T11:14:00;5.17;;;3.80;;
5060;SDS011;2549;52.128;21.068;2023-06-14T11:16:28;7.70;;;3.40;;
5060;SDS011;2549;52.128;21.068;2023-06-14T11:18:55;9.50;;;3.90;;
5060;SDS011;2549;52.128;21.068;2023-06-14T11:21:23;7.17;;;3.83;;
5060;SDS011;2549;52.128;21.068;2023-06-14T11:23:52;4.63;;;4.23;;
5060;SDS011;2549;52.128;21.068;2023-06-14T11:26:29;3.67;;;3.30;;
5060;SDS011;2549;52.128;21.068;2023-06-14T11:29:00;4.97;;;3.80;;
5060;SDS011;2549;52.128;21.068;2023-06-14T11:31:27;7.70;;;3.50;;
5060;SDS011;2549;52.128;21.068;2023-06-14T11:33:56;17.93;;;5.43;;
5060;SDS011;2549;52.128;21.068;2023-06-14T11:36:30;9.50;;;4.07;;
5060;SDS011;2549;52.128;21.068;2023-06-14T11:39:04;10.30;;;3.93;;
5060;SDS011;2549;52.128;21.068;2023-06-14T11:41:36;5.47;;;3.47;;
5060;SDS011;2549;52.128;21.068;2023-06-14T11:44:05;6.50;;;3.60;;
5060;SDS011;2549;52.128;21.068;2023-06-14T11:46:33;4.27;;;3.40;;
5060;SDS011;2549;52.128;21.068;2023-06-14T11:49:01;7.80;;;3.53;;
5060;SDS011;2549;52.128;21.068;2023-06-14T11:51:31;4.13;;;2.70;;
5060;SDS011;2549;52.128;21.068;2023-06-14T11:53:59;5.63;;;3.07;;
5060;SDS011;2549;52.128;21.068;2023-06-14T11:56:29;9.07;;;2.23;;
5060;SDS011;2549;52.128;21.068;2023-06-14T11:59:00;2.67;;;2.40;;
5060;SDS011;2549;52.128;21.068;2023-06-14T12:01:29;4.40;;;2.30;;
5060;SDS011;2549;52.128;21.068;2023-06-14T12:03:58;2.50;;;2.30;;
5060;SDS011;2549;52.128;21.068;2023-06-14T12:06:27;8.33;;;2.13;;
5060;SDS011;2549;52.128;21.068;2023-06-14T12:08:56;2.80;;;2.60;;
5060;SDS011;2549;52.128;21.068;2023-06-14T12:11:23;3.73;;;2.67;;
5060;SDS011;2549;52.128;21.068;2023-06-14T12:13:50;12.13;;;2.70;;
5060;SDS011;2549;52.128;21.068;2023-06-14T12:16:17;4.27;;;2.57;;
5060;SDS011;2549;52.128;21.068;2023-06-14T12:18:44;3.20;;;2.70;;
5060;SDS011;2549;52.128;21.068;2023-06-14T12:21:12;7.00;;;2.67;;
5060;SDS011;2549;52.128;21.068;2023-06-14T12:26:08;2.90;;;2.23;;
5060;SDS011;2549;52.128;21.068;2023-06-14T12:28:37;2.03;;;1.93;;
5060;SDS011;2549;52.128;21.068;2023-06-14T12:31:06;10.97;;;2.80;;
5060;SDS011;2549;52.128;21.068;2023-06-14T12:33:33;5.33;;;2.57;;
5060;SDS011;2549;52.128;21.068;2023-06-14T12:36:03;1.90;;;1.77;;
5060;SDS011;2549;52.128;21.068;2023-06-14T12:38:32;4.50;;;2.17;;
5060;SDS011;2549;52.128;21.068;2023-06-14T12:41:03;4.43;;;1.80;;
5060;SDS011;2549;52.128;21.068;2023-06-14T12:43:31;1.83;;;1.53;;
5060;SDS011;2549;52.128;21.068;2023-06-14T12:46:00;3.43;;;2.40;;
5060;SDS011;2549;52.128;21.068;2023-06-14T12:48:27;4.53;;;2.00;;
5060;SDS011;2549;52.128;21.068;2023-06-14T12:50:56;2.23;;;2.03;;
5060;SDS011;2549;52.128;21.068;2023-06-14T12:53:23;3.57;;;1.90;;
5060;SDS011;2549;52.128;21.068;2023-06-14T12:55:50;2.20;;;1.77;;
5060;SDS011;2549;52.128;21.068;2023-06-14T12:58:19;6.13;;;2.73;;
5060;SDS011;2549;52.128;21.068;2023-06-14T13:00:47;2.60;;;2.03;;
5060;SDS011;2549;52.128;21.068;2023-06-14T13:03:14;2.10;;;2.00;;
5060;SDS011;2549;52.128;21.068;2023-06-14T13:05:41;1.63;;;1.53;;
5060;SDS011;2549;52.128;21.068;2023-06-14T13:08:09;3.50;;;2.97;;
5060;SDS011;2549;52.128;21.068;2023-06-14T13:10:36;5.00;;;2.10;;
5060;SDS011;2549;52.128;21.068;2023-06-14T13:13:03;3.13;;;1.60;;
5060;SDS011;2549;52.128;21.068;2023-06-14T13:15:30;4.70;;;1.47;;
5060;SDS011;2549;52.128;21.068;2023-06-14T13:17:57;1.77;;;1.50;;
5060;SDS011;2549;52.128;21.068;2023-06-14T13:20:24;1.70;;;1.60;;
5060;SDS011;2549;52.128;21.068;2023-06-14T13:22:51;8.93;;;2.07;;
5060;SDS011;2549;52.128;21.068;2023-06-14T13:25:18;2.63;;;1.70;;
5060;SDS011;2549;52.128;21.068;2023-06-14T13:27:45;6.40;;;1.53;;
5060;SDS011;2549;52.128;21.068;2023-06-14T13:30:12;2.17;;;2.00;;
5060;SDS011;2549;52.128;21.068;2023-06-14T13:32:39;4.27;;;1.90;;
5060;SDS011;2549;52.128;21.068;2023-06-14T13:35:06;3.20;;;1.80;;
5060;SDS011;2549;52.128;21.068;2023-06-14T13:37:34;1.57;;;1.47;;
5060;SDS011;2549;52.128;21.068;2023-06-14T13:40:01;4.73;;;1.63;;
5060;SDS011;2549;52.128;21.068;2023-06-14T13:42:28;4.23;;;2.23;;
5060;SDS011;2549;52.128;21.068;2023-06-14T13:44:58;8.97;;;2.03;;
5060;SDS011;2549;52.128;21.068;2023-06-14T13:47:25;2.03;;;1.77;;
5060;SDS011;2549;52.128;21.068;2023-06-14T13:49:52;3.13;;;1.67;;
5060;SDS011;2549;52.128;21.068;2023-06-14T13:52:19;2.80;;;1.93;;
5060;SDS011;2549;52.128;21.068;2023-06-14T13:54:46;2.50;;;2.20;;
5060;SDS011;2549;52.128;21.068;2023-06-14T13:57:15;8.23;;;2.10;;
5060;SDS011;2549;52.128;21.068;2023-06-14T13:59:42;8.50;;;1.80;;
5060;SDS011;2549;52.128;21.068;2023-06-14T14:02:11;3.60;;;1.97;;
5060;SDS011;2549;52.128;21.068;2023-06-14T14:04:38;7.07;;;2.10;;
5060;SDS011;2549;52.128;21.068;2023-06-14T14:07:06;2.50;;;2.10;;
5060;SDS011;2549;52.128;21.068;2023-06-14T14:09:33;8.23;;;2.40;;
5060;SDS011;2549;52.128;21.068;2023-06-14T14:12:01;2.97;;;1.97;;
5060;SDS011;2549;52.128;21.068;2023-06-14T14:14:30;8.83;;;2.10;;
5060;SDS011;2549;52.128;21.068;2023-06-14T14:16:58;1.67;;;1.50;;
5060;SDS011;2549;52.128;21.068;2023-06-14T14:19:25;4.00;;;1.97;;
5060;SDS011;2549;52.128;21.068;2023-06-14T14:21:52;2.50;;;1.43;;
5060;SDS011;2549;52.128;21.068;2023-06-14T14:24:20;3.50;;;1.57;;
5060;SDS011;2549;52.128;21.068;2023-06-14T14:26:47;4.30;;;1.40;;
5060;SDS011;2549;52.128;21.068;2023-06-14T14:29:15;1.50;;;1.40;;
5060;SDS011;2549;52.128;21.068;2023-06-14T14:31:43;2.63;;;2.13;;
5060;SDS011;2549;52.128;21.068;2023-06-14T14:34:10;7.33;;;2.93;;
5060;SDS011;2549;52.128;21.068;2023-06-14T14:36:37;1.83;;;1.40;;
5060;SDS011;2549;52.128;21.068;2023-06-14T14:39:08;4.70;;;2.10;;
5060;SDS011;2549;52.128;21.068;2023-06-14T14:41:35;3.77;;;1.73;;
5060;SDS011;2549;52.128;21.068;2023-06-14T14:44:07;1.47;;;1.37;;
5060;SDS011;2549;52.128;21.068;2023-06-14T14:46:34;1.97;;;1.87;;
5060;SDS011;2549;52.128;21.068;2023-06-14T14:49:01;2.23;;;1.57;;
5060;SDS011;2549;52.128;21.068;2023-06-14T14:51:29;2.67;;;1.77;;
5060;SDS011;2549;52.128;21.068;2023-06-14T14:53:56;2.40;;;2.10;;
5060;SDS011;2549;52.128;21.068;2023-06-14T14:56:22;6.10;;;1.90;;
5060;SDS011;2549;52.128;21.068;2023-06-14T14:58:50;2.17;;;1.57;;
5060;SDS011;2549;52.128;21.068;2023-06-14T15:01:18;3.63;;;2.00;;
5060;SDS011;2549;52.128;21.068;2023-06-14T15:03:45;4.20;;;1.60;;
5060;SDS011;2549;52.128;21.068;2023-06-14T15:06:24;8.13;;;2.40;;
5060;SDS011;2549;52.128;21.068;2023-06-14T15:08:51;1.73;;;1.53;;
5060;SDS011;2549;52.128;21.068;2023-06-14T15:11:18;15.23;;;2.43;;
5060;SDS011;2549;52.128;21.068;2023-06-14T15:13:46;8.80;;;1.67;;
5060;SDS011;2549;52.128;21.068;2023-06-14T15:16:13;2.70;;;2.00;;
5060;SDS011;2549;52.128;21.068;2023-06-14T15:18:41;2.50;;;1.50;;
5060;SDS011;2549;52.128;21.068;2023-06-14T15:21:08;6.77;;;1.77;;
5060;SDS011;2549;52.128;21.068;2023-06-14T15:23:34;4.43;;;1.77;;
5060;SDS011;2549;52.128;21.068;2023-06-14T15:26:01;2.80;;;1.60;;